createdAt,value
2019-06-08T00:00:20.705Z,0.93
2019-06-08T00:05:24.985Z,1.00
2019-06-08T00:10:29.098Z,0.63
2019-06-08T00:15:34.285Z,0.90
2019-06-08T00:20:38.605Z,0.80
2019-06-08T00:25:42.724Z,1.00
2019-06-08T00:30:46.828Z,0.90
2019-06-08T00:35:53.347Z,0.70
2019-06-08T00:40:58.878Z,0.70
2019-06-08T00:46:03.257Z,0.70
2019-06-08T00:51:09.288Z,0.80
2019-06-08T00:56:13.651Z,0.80
2019-06-08T01:01:22.059Z,0.80
2019-06-08T01:06:25.134Z,0.60
2019-06-08T01:11:29.317Z,0.80
2019-06-08T01:16:34.465Z,0.77
2019-06-08T01:21:40.446Z,1.03
2019-06-08T01:26:44.886Z,0.70
2019-06-08T01:31:49.239Z,0.70
2019-06-08T01:36:53.504Z,0.73
2019-06-08T01:41:58.096Z,0.67
2019-06-08T01:47:02.220Z,0.80
2019-06-08T01:52:06.324Z,0.87
2019-06-08T01:57:10.426Z,0.97
2019-06-08T02:02:14.608Z,1.03
2019-06-08T02:07:18.792Z,0.50
2019-06-08T02:12:23.124Z,0.60
2019-06-08T02:17:29.406Z,0.90
2019-06-08T02:22:33.585Z,0.33
2019-06-08T02:27:37.724Z,0.60
2019-06-08T02:32:43.829Z,0.70
2019-06-08T02:37:47.919Z,0.93
2019-06-08T02:42:52.334Z,0.73
2019-06-08T02:47:56.448Z,0.90
2019-06-08T02:53:00.565Z,0.60
2019-06-08T02:58:04.837Z,0.60
2019-06-08T03:03:09.220Z,0.73
2019-06-08T03:08:13.333Z,0.80
2019-06-08T03:13:17.762Z,0.97
2019-06-08T03:18:21.888Z,0.70
2019-06-08T03:23:26.000Z,0.83
2019-06-08T03:28:30.117Z,0.60
2019-06-08T03:33:38.553Z,1.00
2019-06-08T03:38:42.318Z,0.90
2019-06-08T03:43:46.529Z,0.90
2019-06-08T03:48:52.629Z,0.70
2019-06-08T03:53:56.736Z,0.73
2019-06-08T03:59:02.464Z,1.10
2019-06-08T04:04:06.573Z,1.00
2019-06-08T04:09:11.376Z,0.73
2019-06-08T04:14:15.488Z,0.97
2019-06-08T04:19:19.841Z,1.10
2019-06-08T04:24:23.965Z,0.97
2019-06-08T04:29:28.792Z,0.87
2019-06-08T04:34:33.868Z,1.17
2019-06-08T04:39:38.424Z,1.67
2019-06-08T04:44:44.547Z,1.07
2019-06-08T04:49:49.183Z,1.10
2019-06-08T04:54:55.144Z,0.87
2019-06-08T04:59:59.245Z,1.13
2019-06-08T05:05:03.459Z,1.37
2019-06-08T05:10:07.737Z,1.07
2019-06-08T05:15:12.068Z,1.73
2019-06-08T05:20:16.248Z,1.23
2019-06-08T05:25:20.593Z,1.30
2019-06-08T05:30:27.485Z,1.60
2019-06-08T05:35:30.606Z,1.30
2019-06-08T05:40:34.771Z,1.60
2019-06-08T05:45:43.568Z,1.40
2019-06-08T05:51:00.418Z,1.40
2019-06-08T05:55:52.013Z,1.47
2019-06-08T06:00:56.116Z,1.10
2019-06-08T06:06:01.204Z,1.30
2019-06-08T06:11:05.324Z,1.53
2019-06-08T06:16:11.101Z,1.40
2019-06-08T06:21:15.210Z,1.30
2019-06-08T06:26:19.623Z,1.20
2019-06-08T06:31:25.040Z,1.67
2019-06-08T06:36:29.453Z,1.30
2019-06-08T06:41:33.555Z,1.50
2019-06-08T06:46:37.669Z,1.20
2019-06-08T06:51:42.338Z,1.27
2019-06-08T06:56:47.274Z,1.37
2019-06-08T07:01:55.617Z,1.67
2019-06-08T07:07:00.000Z,1.80
2019-06-08T07:12:04.177Z,1.20
2019-06-08T07:17:08.284Z,1.60
2019-06-08T07:22:12.395Z,1.23
2019-06-08T07:27:16.508Z,1.47
2019-06-08T07:32:20.694Z,1.50
2019-06-08T07:37:26.601Z,1.40
2019-06-08T07:42:33.673Z,1.40
2019-06-08T07:47:37.812Z,1.20
2019-06-08T07:52:42.435Z,1.20
2019-06-08T07:57:48.597Z,1.30
2019-06-08T08:02:54.342Z,0.97
2019-06-08T08:07:59.001Z,1.40
2019-06-08T08:13:03.638Z,1.70
2019-06-08T08:18:15.583Z,1.00
2019-06-08T08:23:19.953Z,1.30
2019-06-08T08:28:27.927Z,1.17
2019-06-08T08:33:33.538Z,1.47
2019-06-08T08:38:38.077Z,1.20
2019-06-08T08:43:44.856Z,1.60
2019-06-08T08:48:50.918Z,1.47
2019-06-08T08:54:08.554Z,1.20
2019-06-08T08:59:10.846Z,1.70
2019-06-08T09:04:15.445Z,1.20
2019-06-08T09:09:21.633Z,1.20
2019-06-08T09:14:27.950Z,1.17
2019-06-08T09:19:31.260Z,1.70
2019-06-08T09:24:35.705Z,1.20
2019-06-08T09:29:39.834Z,0.97
2019-06-08T09:34:43.981Z,1.10
2019-06-08T09:39:48.445Z,1.00
2019-06-08T09:44:54.254Z,1.80
2019-06-08T09:50:01.952Z,1.33
2019-06-08T09:55:06.894Z,1.40
2019-06-08T10:00:17.753Z,1.60
2019-06-08T10:05:19.072Z,1.20
2019-06-08T10:10:23.513Z,1.53
2019-06-08T10:15:27.907Z,1.30
2019-06-08T10:20:32.392Z,1.20
2019-06-08T10:25:38.545Z,1.67
2019-06-08T10:30:43.872Z,1.23
2019-06-08T10:35:51.673Z,1.40
2019-06-08T10:41:12.859Z,1.17
2019-06-08T10:46:16.084Z,1.37
2019-06-08T10:51:18.195Z,1.40
2019-06-08T10:56:22.024Z,1.20
2019-06-08T11:01:28.145Z,2.07
2019-06-08T11:06:32.469Z,1.23
2019-06-08T11:11:38.304Z,1.17
2019-06-08T11:16:42.485Z,1.30
2019-06-08T11:21:48.211Z,1.93
2019-06-08T11:26:52.417Z,1.47
2019-06-08T11:31:58.625Z,1.20
2019-06-08T11:37:03.622Z,1.00
2019-06-08T11:42:10.719Z,1.20
2019-06-08T11:47:14.738Z,1.30
2019-06-08T11:52:18.852Z,1.57
2019-06-08T11:57:23.229Z,1.17
2019-06-08T12:02:29.245Z,1.37
2019-06-08T12:07:34.120Z,1.13
2019-06-08T12:12:38.576Z,1.13
2019-06-08T12:17:43.110Z,1.00
2019-06-08T12:22:48.830Z,0.97
2019-06-08T12:27:52.939Z,1.00
2019-06-08T12:32:58.157Z,1.07
2019-06-08T12:38:02.391Z,1.00
2019-06-08T12:43:11.663Z,1.00
2019-06-08T12:48:19.571Z,1.10
2019-06-08T12:53:23.199Z,0.90
2019-06-08T12:58:27.639Z,0.90
2019-06-08T13:03:31.829Z,1.10
2019-06-08T13:08:38.164Z,0.93
2019-06-08T13:13:43.264Z,1.03
2019-06-08T13:18:48.322Z,1.10
2019-06-08T13:23:52.556Z,1.20
2019-06-08T13:29:00.553Z,1.40
2019-06-08T13:34:04.363Z,0.90
2019-06-08T13:39:10.357Z,1.00
2019-06-08T13:44:15.610Z,1.13
2019-06-08T13:49:26.725Z,1.60
2019-06-08T13:54:30.889Z,0.90
2019-06-08T13:59:32.704Z,1.30
2019-06-08T14:04:39.394Z,1.20
2019-06-08T14:09:42.832Z,1.00
2019-06-08T14:14:48.229Z,1.40
2019-06-08T14:19:54.246Z,0.77
2019-06-08T14:24:59.484Z,1.20
2019-06-08T14:30:05.004Z,1.50
2019-06-08T14:35:09.461Z,0.93
2019-06-08T14:40:14.228Z,0.90
2019-06-08T14:45:20.807Z,0.97
2019-06-08T14:50:29.253Z,1.27
2019-06-08T14:55:34.174Z,1.20
2019-06-08T15:00:40.461Z,1.03
2019-06-08T15:05:44.835Z,1.00
2019-06-08T15:10:49.824Z,1.10
2019-06-08T15:16:00.208Z,1.10
2019-06-08T15:21:01.214Z,1.20
2019-06-08T15:26:17.614Z,1.03
2019-06-08T15:31:12.775Z,1.13
2019-06-08T15:36:20.253Z,1.20
2019-06-08T15:41:24.134Z,0.93
2019-06-08T15:46:30.438Z,1.33
2019-06-08T15:51:38.249Z,0.83
2019-06-08T15:56:48.161Z,1.13
2019-06-08T16:01:47.529Z,1.10
2019-06-08T16:06:51.721Z,1.00
2019-06-08T16:11:55.912Z,0.93
2019-06-08T16:17:01.533Z,1.20
2019-06-08T16:22:07.070Z,1.13
2019-06-08T16:27:11.188Z,0.83
2019-06-08T16:32:15.539Z,1.10
2019-06-08T16:37:20.336Z,1.40
2019-06-08T16:42:24.733Z,1.50
2019-06-08T16:47:29.170Z,1.00
2019-06-08T16:52:36.582Z,1.20
2019-06-08T16:57:44.229Z,1.30
2019-06-08T17:02:54.151Z,0.87
2019-06-08T17:07:58.649Z,1.00
2019-06-08T17:13:04.016Z,0.90
2019-06-08T17:18:09.503Z,0.80
2019-06-08T17:23:13.948Z,0.90
2019-06-08T17:28:18.309Z,1.40
2019-06-08T17:33:23.425Z,1.10
2019-06-08T17:38:27.546Z,0.87
2019-06-08T17:43:32.063Z,1.00
2019-06-08T17:48:37.066Z,1.00
2019-06-08T17:53:41.455Z,1.00
2019-06-08T17:58:47.436Z,0.77
2019-06-08T18:03:57.475Z,0.90
2019-06-08T18:09:02.851Z,0.87
2019-06-08T18:14:08.706Z,0.87
2019-06-08T18:19:22.621Z,0.97
2019-06-08T18:24:28.048Z,0.60
2019-06-08T18:29:33.041Z,0.90
2019-06-08T18:34:39.929Z,0.90
2019-06-08T18:39:44.812Z,0.70
2019-06-08T18:44:49.646Z,0.80
2019-06-08T18:49:54.026Z,0.90
2019-06-08T18:54:58.672Z,0.80
2019-06-08T19:00:08.388Z,0.83
2019-06-08T19:05:11.205Z,0.60
2019-06-08T19:10:19.840Z,0.83
2019-06-08T19:15:27.654Z,0.70
2019-06-08T19:20:32.150Z,0.90
2019-06-08T19:25:41.260Z,0.80
2019-06-08T19:30:45.259Z,0.73
2019-06-08T19:35:53.585Z,1.27
2019-06-08T19:40:57.324Z,1.50
2019-06-08T19:46:03.571Z,0.80
2019-06-08T19:51:07.931Z,0.70
2019-06-08T19:56:12.055Z,0.97
2019-06-08T20:01:18.080Z,0.90
2019-06-08T20:06:23.245Z,0.63
2019-06-08T20:11:29.407Z,0.70
2019-06-08T20:16:34.636Z,0.80
2019-06-08T20:21:40.954Z,0.90
2019-06-08T20:26:47.133Z,0.63
2019-06-08T20:31:54.128Z,0.60
2019-06-08T20:37:01.490Z,0.67
2019-06-08T20:42:09.199Z,0.70
2019-06-08T20:47:11.332Z,0.83
2019-06-08T20:52:17.607Z,0.70
2019-06-08T20:57:21.797Z,0.80
2019-06-08T21:02:28.493Z,1.00
2019-06-08T21:07:32.024Z,0.80
2019-06-08T21:12:37.985Z,1.07
2019-06-08T21:17:41.943Z,0.93
2019-06-08T21:22:50.336Z,0.80
2019-06-08T21:27:54.210Z,0.93
2019-06-08T21:33:00.784Z,0.80
2019-06-08T21:38:20.184Z,0.73
2019-06-08T21:43:11.620Z,0.77
2019-06-08T21:48:16.013Z,0.80
2019-06-08T21:53:20.260Z,0.67
2019-06-08T21:58:24.419Z,0.70
2019-06-08T22:03:29.301Z,0.70
2019-06-08T22:08:33.514Z,0.90
2019-06-08T22:13:37.860Z,0.90
2019-06-08T22:18:43.716Z,1.00
2019-06-08T22:23:48.264Z,0.53
2019-06-08T22:28:53.484Z,1.00
2019-06-08T22:34:00.330Z,0.63
2019-06-08T22:39:08.089Z,0.60
2019-06-08T22:44:14.228Z,0.60
2019-06-08T22:49:18.660Z,0.80
2019-06-08T22:54:22.829Z,0.77
2019-06-08T22:59:27.685Z,0.70
2019-06-08T23:04:31.982Z,0.80
2019-06-08T23:09:37.383Z,0.70
2019-06-08T23:14:41.860Z,0.90
2019-06-08T23:19:48.149Z,0.73
2019-06-08T23:24:52.028Z,0.67
2019-06-08T23:29:58.687Z,0.70
2019-06-08T23:35:03.000Z,0.70
2019-06-08T23:40:08.589Z,0.80
2019-06-08T23:45:12.766Z,0.80
2019-06-08T23:50:17.821Z,0.70
2019-06-08T23:55:23.716Z,0.80
